Time;durP1;ratioP1;P1;durP2;ratioP2;P2;SDS_P1;SDS_P2;PMS_P1;PMS_P2;Temp;Humidity;BMP_temperature;BMP_pressure;BME280_temperature;BME280_humidity;BME280_pressure;Samples;Min_cycle;Max_cycle;Signal;HPM_P1;HPM_P2
2022/04/27 00:00:21;;;;;;;12.80;7.97;;;7.70;99.90;;;;;;5097129;27;21113;-69
2022/04/27 00:02:47;;;;;;;14.48;8.38;;;7.70;99.90;;;;;;5115324;28;20038;-70
2022/04/27 00:05:14;;;;;;;14.45;7.70;;;7.70;99.90;;;;;;5128422;27;20026;-70
2022/04/27 00:07:39;;;;;;;13.43;7.93;;;8.00;99.90;;;;;;5118104;27;20039;-69
2022/04/27 00:10:06;;;;;;;12.77;8.45;;;7.80;99.90;;;;;;5091459;28;20083;-69
2022/04/27 00:12:36;;;;;;;12.05;8.52;;;7.90;99.90;;;;;;5116774;28;20210;-71
2022/04/27 00:15:03;;;;;;;12.85;9.13;;;7.90;99.90;;;;;;5104036;28;20055;-72
2022/04/27 00:17:29;;;;;;;13.80;8.57;;;7.90;99.90;;;;;;5067565;28;20047;-70
2022/04/27 00:19:55;;;;;;;9.80;7.97;;;8.00;99.90;;;;;;5094838;28;20222;-72
2022/04/27 00:22:20;;;;;;;14.00;8.55;;;8.00;99.90;;;;;;5087518;28;20125;-70
2022/04/27 00:24:46;;;;;;;13.43;8.95;;;8.00;99.90;;;;;;5099530;28;20132;-69
2022/04/27 00:27:12;;;;;;;14.25;9.35;;;8.10;99.90;;;;;;5093750;28;20039;-70
2022/04/27 00:29:37;;;;;;;13.50;8.73;;;8.10;99.90;;;;;;5086209;28;20388;-70
2022/04/27 00:32:03;;;;;;;13.70;9.15;;;8.10;99.90;;;;;;5102791;28;20036;-69
2022/04/27 00:34:29;;;;;;;13.35;8.27;;;8.00;99.90;;;;;;5084910;28;20043;-70
2022/04/27 00:36:55;;;;;;;16.83;9.32;;;8.20;99.90;;;;;;5105412;28;20039;-69
2022/04/27 00:39:20;;;;;;;12.45;9.52;;;8.20;99.90;;;;;;5079876;28;20036;-70
2022/04/27 00:42:02;;;;;;;14.70;10.23;;;8.20;99.90;;;;;;5096915;28;20032;-70
2022/04/27 00:44:28;;;;;;;15.30;9.60;;;8.20;99.90;;;;;;5098400;28;20095;-70
2022/04/27 00:46:55;;;;;;;13.10;8.95;;;8.20;99.90;;;;;;5096801;28;20457;-69
2022/04/27 00:49:21;;;;;;;13.18;8.57;;;8.20;99.90;;;;;;5094609;28;20038;-70
2022/04/27 00:51:51;;;;;;;12.50;8.13;;;8.10;99.90;;;;;;5096917;28;20032;-70
2022/04/27 00:54:22;;;;;;;16.38;9.20;;;8.20;99.90;;;;;;5095948;28;20036;-69
2022/04/27 00:56:49;;;;;;;11.55;7.55;;;8.20;99.90;;;;;;5092378;28;20046;-70
2022/04/27 00:59:15;;;;;;;14.10;8.60;;;8.20;99.90;;;;;;5065039;28;20039;-69
2022/04/27 01:01:41;;;;;;;13.30;7.75;;;8.20;99.90;;;;;;5094438;28;20036;-69
2022/04/27 01:04:10;;;;;;;12.13;8.13;;;8.20;99.90;;;;;;5094514;28;20027;-70
2022/04/27 01:06:38;;;;;;;13.90;8.98;;;8.30;99.90;;;;;;5095217;28;20039;-69
2022/04/27 01:09:06;;;;;;;14.48;8.18;;;8.20;99.90;;;;;;5078918;27;20110;-70
2022/04/27 01:11:32;;;;;;;12.98;7.85;;;8.20;99.90;;;;;;5092022;28;20093;-71
2022/04/27 01:13:58;;;;;;;12.20;8.05;;;8.30;99.90;;;;;;5118690;27;20096;-69
2022/04/27 01:16:24;;;;;;;12.63;7.63;;;8.20;99.90;;;;;;5111027;27;20314;-69
2022/04/27 01:18:52;;;;;;;11.43;7.93;;;8.20;99.90;;;;;;5113717;27;20512;-70
2022/04/27 01:21:18;;;;;;;13.70;8.32;;;8.20;99.90;;;;;;5097642;28;20062;-70
2022/04/27 01:23:44;;;;;;;10.93;7.13;;;8.20;99.90;;;;;;5110825;28;20016;-70
2022/04/27 01:26:10;;;;;;;10.52;7.53;;;8.20;99.90;;;;;;5118520;27;20052;-69
2022/04/27 01:28:37;;;;;;;12.40;7.90;;;8.30;99.90;;;;;;5103722;27;20027;-70
2022/04/27 01:31:09;;;;;;;10.90;7.97;;;8.20;99.90;;;;;;5106483;27;20032;-70
2022/04/27 01:33:38;;;;;;;12.10;8.23;;;8.20;99.90;;;;;;5131264;27;20039;-69
2022/04/27 01:36:08;;;;;;;13.85;8.23;;;8.20;99.90;;;;;;5106320;27;20039;-70
2022/04/27 01:38:42;;;;;;;13.20;7.90;;;8.20;99.90;;;;;;5099177;27;20268;-70
2022/04/27 01:41:09;;;;;;;13.27;7.88;;;8.20;99.90;;;;;;5120769;27;20019;-70
2022/04/27 01:43:35;;;;;;;12.52;8.00;;;8.30;99.90;;;;;;5095270;27;20134;-69
2022/04/27 01:46:02;;;;;;;13.60;8.05;;;8.20;99.90;;;;;;5121623;27;20107;-69
2022/04/27 01:48:28;;;;;;;9.80;7.00;;;8.20;99.90;;;;;;5110683;27;20102;-69
2022/04/27 01:50:54;;;;;;;10.93;8.10;;;8.20;99.90;;;;;;5123750;27;20459;-69
2022/04/27 01:56:05;;;;;;;11.50;8.00;;;8.10;99.90;;;;;;5118854;27;20035;-70
2022/04/27 01:58:31;;;;;;;10.90;7.45;;;8.10;99.90;;;;;;5118833;27;20060;-69
2022/04/27 02:00:57;;;;;;;11.40;8.05;;;8.10;99.90;;;;;;5126076;27;20346;-70
2022/04/27 02:03:24;;;;;;;10.48;7.40;;;8.10;99.90;;;;;;5101433;27;20110;-71
2022/04/27 02:05:52;;;;;;;9.73;7.32;;;8.30;99.90;;;;;;5122764;27;20023;-70
2022/04/27 02:08:18;;;;;;;13.32;7.85;;;8.20;99.90;;;;;;5132289;27;20111;-69
2022/04/27 02:10:44;;;;;;;12.38;8.32;;;8.20;99.90;;;;;;5110277;27;20055;-68
2022/04/27 02:13:11;;;;;;;11.60;7.53;;;8.30;99.90;;;;;;5107291;27;20191;-70
2022/04/27 02:15:38;;;;;;;13.40;7.93;;;8.20;99.90;;;;;;5122406;27;20119;-70
2022/04/27 02:18:04;;;;;;;16.52;7.38;;;8.20;99.90;;;;;;5128741;27;20038;-69
2022/04/27 02:20:30;;;;;;;15.10;8.40;;;8.30;99.90;;;;;;5120316;27;20114;-70
2022/04/27 02:22:56;;;;;;;12.63;7.90;;;8.20;99.90;;;;;;5117668;27;20039;-70
2022/04/27 02:25:23;;;;;;;13.57;8.13;;;8.30;99.90;;;;;;5109295;27;20031;-69
2022/04/27 02:27:52;;;;;;;14.95;7.63;;;8.20;99.90;;;;;;5131479;27;20038;-70
2022/04/27 02:30:20;;;;;;;10.20;7.97;;;8.30;99.90;;;;;;5124247;27;20249;-69
2022/04/27 02:32:46;;;;;;;11.57;7.53;;;8.30;99.90;;;;;;5108762;27;20037;-69
2022/04/27 02:35:13;;;;;;;12.00;7.82;;;8.30;99.90;;;;;;5118629;27;20218;-70
2022/04/27 02:37:39;;;;;;;10.38;7.20;;;8.30;99.90;;;;;;5124024;27;20096;-70
2022/04/27 02:40:05;;;;;;;9.07;7.07;;;8.40;99.90;;;;;;5118155;27;20305;-69
2022/04/27 02:42:31;;;;;;;11.20;7.10;;;8.30;99.90;;;;;;5100082;27;20486;-69
2022/04/27 02:44:58;;;;;;;10.50;6.88;;;8.40;99.90;;;;;;5119763;27;20031;-69
2022/04/27 02:47:24;;;;;;;8.90;6.85;;;8.30;99.90;;;;;;5116816;27;20259;-70
2022/04/27 02:52:34;;;;;;;10.95;6.50;;;8.50;99.90;;;;;;5118456;27;20065;-69
2022/04/27 02:54:59;;;;;;;7.97;6.72;;;8.40;99.90;;;;;;5101780;27;20023;-69
2022/04/27 02:57:25;;;;;;;12.27;6.95;;;8.40;99.90;;;;;;5084985;27;20060;-69
2022/04/27 02:59:53;;;;;;;12.10;6.60;;;8.30;99.90;;;;;;5120940;27;20031;-68
2022/04/27 03:02:19;;;;;;;11.80;6.68;;;8.30;99.90;;;;;;5124877;27;20036;-69
2022/04/27 03:04:45;;;;;;;8.75;6.35;;;8.30;99.90;;;;;;5102290;27;20032;-70
2022/04/27 03:07:11;;;;;;;9.43;6.93;;;8.40;99.90;;;;;;5119825;27;20054;-70
2022/04/27 03:09:37;;;;;;;7.78;6.55;;;8.30;99.90;;;;;;5116546;27;20268;-70
2022/04/27 03:12:03;;;;;;;9.40;5.65;;;8.30;99.90;;;;;;5119570;27;20240;-70
2022/04/27 03:14:29;;;;;;;9.73;6.15;;;8.30;99.90;;;;;;5115956;27;20040;-70
2022/04/27 03:16:55;;;;;;;8.35;5.97;;;8.20;99.90;;;;;;5102534;28;20071;-69
2022/04/27 03:19:21;;;;;;;8.23;6.07;;;8.30;99.90;;;;;;5097025;27;20035;-70
2022/04/27 03:21:47;;;;;;;7.45;5.50;;;8.30;99.90;;;;;;5133383;27;20053;-70
2022/04/27 03:24:13;;;;;;;10.70;5.85;;;8.20;99.90;;;;;;5089001;28;20081;-70
2022/04/27 03:26:39;;;;;;;9.98;5.72;;;8.20;99.90;;;;;;5120475;27;20045;-69
2022/04/27 03:29:05;;;;;;;12.73;6.10;;;8.30;99.90;;;;;;5122953;27;20088;-69
2022/04/27 03:31:32;;;;;;;10.05;5.70;;;8.30;99.90;;;;;;5084421;27;20030;-70
2022/04/27 03:33:58;;;;;;;9.65;5.13;;;8.40;99.90;;;;;;5120747;27;20106;-70
2022/04/27 03:36:25;;;;;;;10.15;5.45;;;8.30;99.90;;;;;;5089494;27;20020;-71
2022/04/27 03:38:51;;;;;;;9.73;6.05;;;8.30;99.90;;;;;;5116545;27;20028;-69
2022/04/27 03:41:20;;;;;;;8.45;5.05;;;8.40;99.90;;;;;;5108683;27;20031;-71
2022/04/27 03:43:46;;;;;;;10.13;5.10;;;8.30;99.90;;;;;;5106112;27;20031;-71
2022/04/27 03:46:12;;;;;;;6.38;4.93;;;8.30;99.90;;;;;;5118798;27;20089;-70
2022/04/27 03:48:38;;;;;;;8.07;5.57;;;8.30;99.90;;;;;;5120885;27;20027;-70
2022/04/27 03:51:04;;;;;;;13.75;4.88;;;8.40;99.90;;;;;;5120595;27;20034;-70
2022/04/27 03:53:30;;;;;;;9.77;5.00;;;8.40;99.90;;;;;;5118556;27;20076;-69
2022/04/27 03:55:56;;;;;;;7.18;4.32;;;8.40;99.90;;;;;;5113015;27;20076;-69
2022/04/27 03:58:21;;;;;;;7.22;4.80;;;8.40;99.90;;;;;;5116160;27;20034;-69
2022/04/27 04:00:47;;;;;;;5.93;4.13;;;8.30;99.90;;;;;;5090431;28;20032;-69
2022/04/27 04:03:13;;;;;;;5.28;3.80;;;8.30;99.90;;;;;;5102619;28;20299;-69
2022/04/27 04:05:39;;;;;;;7.28;4.05;;;8.20;99.90;;;;;;5109688;28;20203;-70
2022/04/27 04:08:05;;;;;;;6.53;3.60;;;8.20;99.90;;;;;;5085286;28;20221;-71
2022/04/27 04:10:31;;;;;;;6.50;3.80;;;8.20;99.90;;;;;;5119532;27;20327;-71
2022/04/27 04:12:57;;;;;;;6.50;3.35;;;8.20;99.90;;;;;;5118937;27;20039;-70
2022/04/27 04:15:23;;;;;;;6.32;4.00;;;8.10;99.90;;;;;;5089056;28;20038;-71
2022/04/27 04:17:48;;;;;;;9.82;3.70;;;8.10;99.90;;;;;;5114515;27;20027;-71
2022/04/27 04:20:17;;;;;;;5.78;3.75;;;8.10;99.90;;;;;;5103858;28;20043;-71
2022/04/27 04:22:44;;;;;;;5.93;3.42;;;8.10;99.90;;;;;;5092678;28;20035;-70
2022/04/27 04:30:40;;;;;;;6.35;3.15;;;8.10;99.90;;;;;;5123051;27;20102;-70
2022/04/27 04:33:06;;;;;;;6.57;2.72;;;8.10;99.90;;;;;;5097873;27;20070;-70
2022/04/27 04:35:32;;;;;;;5.72;3.28;;;8.10;99.90;;;;;;5142979;27;20344;-69
2022/04/27 04:37:58;;;;;;;4.50;3.33;;;8.00;99.90;;;;;;5119321;27;20100;-69
2022/04/27 04:40:24;;;;;;;3.97;3.28;;;8.00;99.90;;;;;;5100375;28;20496;-70
2022/04/27 04:42:49;;;;;;;3.85;3.20;;;8.00;99.90;;;;;;5105542;27;20029;-71
2022/04/27 04:45:15;;;;;;;7.25;4.05;;;8.00;99.90;;;;;;5120225;28;20078;-71
2022/04/27 04:47:46;;;;;;;4.68;3.20;;;7.90;99.90;;;;;;5121242;27;20043;-69
2022/04/27 04:50:12;;;;;;;5.32;3.60;;;7.90;99.90;;;;;;5105737;28;20046;-69
2022/04/27 04:52:38;;;;;;;6.38;3.67;;;7.90;99.90;;;;;;5127628;28;20107;-71
2022/04/27 04:55:04;;;;;;;7.95;3.70;;;7.90;99.90;;;;;;5111071;28;20027;-71
2022/04/27 04:57:30;;;;;;;6.22;3.90;;;7.90;99.90;;;;;;5110636;28;20031;-70
2022/04/27 04:59:56;;;;;;;6.95;4.18;;;7.90;99.90;;;;;;5120002;27;20305;-69
2022/04/27 05:02:22;;;;;;;6.45;4.05;;;7.90;99.90;;;;;;5118932;27;20101;-70
2022/04/27 05:04:49;;;;;;;4.97;3.95;;;7.90;99.90;;;;;;5117428;27;20451;-70
2022/04/27 05:07:18;;;;;;;6.47;3.80;;;8.00;99.90;;;;;;5096269;27;20259;-71
2022/04/27 05:09:44;;;;;;;4.43;3.72;;;8.00;99.90;;;;;;5119237;27;20059;-71
2022/04/27 05:12:10;;;;;;;7.63;3.95;;;8.10;99.90;;;;;;5121209;27;20039;-71
2022/04/27 05:14:36;;;;;;;7.07;4.18;;;8.10;99.90;;;;;;5121473;27;20043;-69
2022/04/27 05:17:02;;;;;;;8.77;4.45;;;8.10;99.90;;;;;;5120365;27;20027;-70
2022/04/27 05:19:28;;;;;;;5.05;3.67;;;8.20;99.90;;;;;;5122825;27;20038;-71
2022/04/27 05:21:53;;;;;;;6.55;3.90;;;8.20;99.90;;;;;;5124379;27;20023;-70
2022/04/27 05:24:19;;;;;;;4.82;3.80;;;8.30;99.90;;;;;;5095457;27;20120;-70
2022/04/27 05:26:45;;;;;;;5.00;3.50;;;8.30;99.90;;;;;;5115899;28;20786;-69
2022/04/27 05:31:55;;;;;;;5.90;3.63;;;8.40;99.90;;;;;;5123775;27;20218;-69
2022/04/27 05:34:26;;;;;;;5.55;3.90;;;8.40;99.90;;;;;;5104488;27;20035;-69
2022/04/27 05:36:52;;;;;;;4.30;3.40;;;8.40;99.90;;;;;;5111770;27;20020;-70
2022/04/27 05:39:20;;;;;;;6.43;3.67;;;8.50;99.90;;;;;;5121163;27;20054;-70
2022/04/27 05:41:50;;;;;;;5.43;3.58;;;8.50;99.90;;;;;;5122192;27;20027;-69
2022/04/27 05:44:26;;;;;;;6.57;3.83;;;8.60;99.90;;;;;;5117292;28;20038;-69
2022/04/27 05:46:53;;;;;;;4.90;3.70;;;8.60;99.90;;;;;;5144149;27;20034;-70
2022/04/27 05:49:20;;;;;;;7.03;3.70;;;8.60;99.90;;;;;;5136392;27;20138;-69
2022/04/27 05:51:47;;;;;;;4.57;3.55;;;8.70;99.90;;;;;;5133011;27;20102;-69
2022/04/27 05:54:16;;;;;;;4.20;3.28;;;8.60;99.90;;;;;;5115787;27;20076;-69
2022/04/27 05:56:43;;;;;;;4.35;3.15;;;8.70;99.90;;;;;;5130738;27;20054;-70
2022/04/27 05:59:09;;;;;;;3.58;3.17;;;8.70;99.90;;;;;;5120802;27;20102;-70
2022/04/27 06:01:39;;;;;;;4.50;3.50;;;8.80;99.90;;;;;;5123327;27;20090;-71
2022/04/27 06:04:05;;;;;;;5.57;3.03;;;8.90;99.90;;;;;;5118500;27;20298;-69
2022/04/27 06:06:31;;;;;;;5.82;3.28;;;8.90;99.90;;;;;;5108834;27;20175;-70
2022/04/27 06:09:02;;;;;;;4.60;2.88;;;8.90;99.90;;;;;;5101280;27;20168;-70
2022/04/27 06:11:28;;;;;;;3.85;2.85;;;8.70;99.90;;;;;;5095915;28;20040;-70
2022/04/27 06:13:54;;;;;;;3.40;2.53;;;8.90;99.90;;;;;;5104787;27;20470;-70
2022/04/27 06:16:22;;;;;;;4.65;2.83;;;8.90;99.90;;;;;;5116645;27;20035;-71
2022/04/27 06:18:47;;;;;;;4.47;3.28;;;9.00;99.90;;;;;;5124181;27;20049;-70
2022/04/27 06:21:14;;;;;;;3.40;2.88;;;9.10;99.90;;;;;;5123953;27;20349;-69
2022/04/27 06:23:40;;;;;;;3.83;2.78;;;9.10;99.90;;;;;;5103104;27;21684;-69
2022/04/27 06:26:06;;;;;;;4.55;2.45;;;9.10;99.90;;;;;;5134217;27;20329;-69
2022/04/27 06:28:35;;;;;;;3.08;2.30;;;9.10;99.90;;;;;;5138923;27;20582;-70
2022/04/27 06:31:02;;;;;;;5.03;2.50;;;9.10;99.90;;;;;;5133748;27;20051;-71
2022/04/27 06:33:27;;;;;;;4.28;2.28;;;9.20;99.90;;;;;;5120466;27;20058;-68
2022/04/27 06:35:53;;;;;;;5.13;2.63;;;9.20;99.90;;;;;;5122332;27;20712;-70
2022/04/27 06:38:19;;;;;;;5.30;2.70;;;9.00;99.90;;;;;;5122417;27;20062;-71
2022/04/27 06:40:45;;;;;;;8.50;2.92;;;9.10;99.90;;;;;;5118804;27;20057;-71
2022/04/27 06:43:11;;;;;;;5.38;2.88;;;9.20;99.90;;;;;;5121573;27;20075;-71
2022/04/27 06:45:36;;;;;;;3.75;2.90;;;9.30;99.90;;;;;;5087499;27;20118;-71
2022/04/27 06:48:03;;;;;;;5.22;2.45;;;9.30;99.90;;;;;;5127030;27;20043;-70
2022/04/27 06:50:29;;;;;;;4.60;2.17;;;9.40;99.90;;;;;;5108991;27;20038;-72
2022/04/27 06:52:59;;;;;;;4.50;2.53;;;9.40;99.90;;;;;;5138466;27;20036;-72
2022/04/27 06:55:25;;;;;;;3.97;2.20;;;9.50;99.90;;;;;;5124517;27;20035;-72
2022/04/27 06:57:51;;;;;;;4.75;2.65;;;9.40;99.90;;;;;;5119906;27;20248;-71
2022/04/27 07:00:17;;;;;;;5.28;2.25;;;9.40;99.90;;;;;;5133719;27;20070;-70
2022/04/27 07:02:42;;;;;;;5.00;2.40;;;9.40;99.90;;;;;;5105218;28;20069;-70
2022/04/27 07:05:12;;;;;;;3.22;2.17;;;9.50;99.90;;;;;;5121278;27;20035;-70
2022/04/27 07:07:38;;;;;;;6.05;2.20;;;9.60;99.90;;;;;;5104899;28;20042;-72
2022/04/27 07:10:04;;;;;;;3.40;2.00;;;9.70;99.90;;;;;;5129540;27;20059;-70
2022/04/27 07:12:30;;;;;;;4.07;2.33;;;9.70;99.90;;;;;;5107235;28;20043;-69
2022/04/27 07:14:56;;;;;;;5.70;2.40;;;9.70;99.90;;;;;;5128716;27;20073;-73
2022/04/27 07:17:22;;;;;;;4.45;2.40;;;9.60;99.90;;;;;;5123509;27;20098;-72
2022/04/27 07:19:48;;;;;;;5.07;1.90;;;9.60;99.90;;;;;;5111961;27;20226;-70
2022/04/27 07:22:13;;;;;;;3.47;1.55;;;9.70;99.90;;;;;;5122604;27;20031;-70
2022/04/27 07:24:39;;;;;;;3.88;2.00;;;9.80;99.90;;;;;;5133952;27;20226;-70
2022/04/27 07:27:05;;;;;;;3.58;1.90;;;9.80;99.90;;;;;;5108941;27;20243;-70
2022/04/27 07:29:31;;;;;;;4.63;1.90;;;9.90;99.90;;;;;;5088168;28;20267;-70
2022/04/27 07:31:59;;;;;;;3.05;1.80;;;10.00;99.90;;;;;;5120236;27;20071;-71
2022/04/27 07:34:25;;;;;;;1.92;1.42;;;10.00;99.90;;;;;;5108253;27;20214;-70
2022/04/27 07:36:51;;;;;;;3.40;1.60;;;10.00;99.90;;;;;;5121082;28;20284;-70
2022/04/27 07:39:17;;;;;;;3.45;1.70;;;9.90;99.90;;;;;;5086371;28;20032;-71
2022/04/27 07:41:45;;;;;;;3.40;1.80;;;10.00;99.90;;;;;;5120556;28;20030;-70
2022/04/27 07:44:11;;;;;;;4.13;2.20;;;10.10;99.90;;;;;;5123371;27;20298;-70
2022/04/27 07:46:37;;;;;;;2.53;1.55;;;10.10;99.90;;;;;;5104094;27;20065;-70
2022/04/27 07:49:03;;;;;;;5.40;1.80;;;10.40;99.90;;;;;;5118093;27;20035;-70
2022/04/27 07:51:28;;;;;;;4.60;1.92;;;10.30;99.90;;;;;;5130503;27;20058;-71
2022/04/27 07:53:54;;;;;;;3.28;1.70;;;10.30;99.90;;;;;;5090538;28;20043;-71
2022/04/27 07:56:20;;;;;;;3.70;1.63;;;10.30;99.90;;;;;;5121086;28;20027;-71
2022/04/27 07:58:45;;;;;;;5.70;2.00;;;10.30;99.90;;;;;;5122121;28;20039;-72
2022/04/27 08:01:13;;;;;;;4.03;1.90;;;10.40;99.90;;;;;;5102574;28;20341;-71
2022/04/27 08:03:39;;;;;;;4.93;2.47;;;10.40;99.90;;;;;;5106289;28;20191;-70
2022/04/27 08:06:05;;;;;;;4.90;2.10;;;10.40;99.90;;;;;;5104687;27;20034;-71
2022/04/27 08:08:31;;;;;;;6.28;2.78;;;10.40;99.90;;;;;;5112000;28;20234;-72
2022/04/27 08:11:07;;;;;;;6.38;2.53;;;10.40;99.90;;;;;;5126096;27;20332;-70
2022/04/27 08:13:34;;;;;;;4.18;2.28;;;10.30;99.90;;;;;;5123958;27;20191;-71
2022/04/27 08:16:41;;;;;;;4.85;2.30;;;10.30;99.90;;;;;;5117851;27;20042;-71
2022/04/27 08:19:35;;;;;;;3.45;2.05;;;10.40;99.90;;;;;;5108520;27;20026;-69
2022/04/27 08:22:06;;;;;;;4.43;2.10;;;10.50;99.90;;;;;;5100931;27;20144;-69
2022/04/27 08:24:33;;;;;;;5.55;2.55;;;10.50;99.90;;;;;;5107367;27;20095;-71
2022/04/27 08:27:04;;;;;;;5.35;2.30;;;10.60;99.90;;;;;;5132191;27;20347;-69
2022/04/27 08:29:33;;;;;;;4.78;2.65;;;10.60;99.90;;;;;;5110542;27;21121;-71
2022/04/27 08:31:59;;;;;;;7.40;2.30;;;10.60;99.90;;;;;;5108235;27;20057;-71
2022/04/27 08:34:26;;;;;;;4.57;2.28;;;10.50;99.90;;;;;;5115089;27;20062;-70
2022/04/27 08:36:52;;;;;;;5.32;2.30;;;10.50;99.90;;;;;;5120288;27;20041;-69
2022/04/27 08:39:17;;;;;;;4.28;1.92;;;10.40;99.90;;;;;;5129259;27;20106;-70
2022/04/27 08:41:43;;;;;;;3.67;2.00;;;10.50;99.90;;;;;;5124916;27;20312;-70
2022/04/27 08:44:09;;;;;;;4.63;2.03;;;10.60;99.90;;;;;;5134340;27;20449;-71
2022/04/27 08:46:37;;;;;;;5.22;2.60;;;10.60;99.90;;;;;;5122444;27;20337;-71
2022/04/27 08:49:08;;;;;;;3.40;1.90;;;10.70;99.90;;;;;;5110574;27;20470;-70
2022/04/27 08:51:35;;;;;;;5.93;1.85;;;10.70;99.90;;;;;;5117541;27;20135;-71
2022/04/27 08:54:01;;;;;;;4.50;1.90;;;10.50;99.90;;;;;;5125572;27;20038;-71
2022/04/27 08:56:27;;;;;;;5.07;2.42;;;10.40;99.90;;;;;;5115400;27;20094;-71
2022/04/27 08:58:53;;;;;;;7.18;2.33;;;10.50;99.90;;;;;;5106135;27;20043;-71
2022/04/27 09:01:20;;;;;;;5.55;2.17;;;10.60;99.90;;;;;;5111156;27;20118;-71
2022/04/27 09:03:48;;;;;;;5.63;1.83;;;10.40;99.90;;;;;;5107040;27;20072;-71
2022/04/27 09:06:16;;;;;;;5.65;2.05;;;10.60;99.90;;;;;;5088771;27;20027;-70
2022/04/27 09:08:48;;;;;;;6.18;2.20;;;10.60;99.90;;;;;;5122990;27;20069;-71
2022/04/27 09:11:19;;;;;;;7.05;2.28;;;10.50;99.90;;;;;;5122163;27;20039;-72
2022/04/27 09:13:52;;;;;;;9.43;2.65;;;10.80;99.90;;;;;;5143455;27;20121;-72
2022/04/27 09:16:20;;;;;;;8.05;2.60;;;10.80;99.90;;;;;;5143958;27;20042;-70
2022/04/27 09:21:58;;;;;;;7.60;2.30;;;11.00;99.90;;;;;;5120785;27;20035;-71
2022/04/27 09:24:24;;;;;;;6.28;2.17;;;10.90;99.90;;;;;;5106182;27;20213;-71
2022/04/27 09:27:09;;;;;;;8.35;2.80;;;10.90;99.90;;;;;;5116586;27;20053;-71
2022/04/27 09:29:35;;;;;;;;;;;10.60;99.90;;;;;;5117532;27;20035;-71
2022/04/27 09:32:03;;;;;;;5.13;2.88;;;10.80;99.90;;;;;;5121233;27;19919;-71
2022/04/27 09:34:29;;;;;;;7.43;2.72;;;10.90;99.90;;;;;;5108869;27;20087;-71
2022/04/27 09:36:59;;;;;;;6.05;2.53;;;10.80;99.90;;;;;;5127656;27;20062;-71
2022/04/27 09:39:25;;;;;;;5.75;2.33;;;10.90;99.90;;;;;;5124216;27;20053;-71
2022/04/27 09:45:34;;;;;;;7.22;2.30;;;10.90;99.90;;;;;;5051112;28;20051;-71
2022/04/27 09:48:04;;;;;;;9.65;2.47;;;10.80;99.90;;;;;;5122172;27;20057;-71
2022/04/27 09:50:48;;;;;;;9.60;2.60;;;10.90;99.90;;;;;;5130724;27;20333;-71
2022/04/27 09:53:15;;;;;;;6.63;2.28;;;11.00;99.90;;;;;;5106697;27;20031;-71
2022/04/27 09:55:51;;;;;;;8.73;2.28;;;11.00;99.90;;;;;;5120066;27;20043;-70
2022/04/27 09:58:19;;;;;;;6.45;2.47;;;11.00;99.90;;;;;;5104923;27;20031;-71
2022/04/27 10:00:51;;;;;;;6.53;2.58;;;10.80;99.90;;;;;;5108159;27;20039;-71
2022/04/27 10:03:18;;;;;;;6.43;2.42;;;10.80;99.90;;;;;;5113046;27;20058;-71
2022/04/27 10:05:46;;;;;;;6.03;2.28;;;10.80;99.90;;;;;;5092890;27;20023;-71
2022/04/27 10:08:12;;;;;;;7.65;2.08;;;10.80;99.90;;;;;;5128265;27;20075;-72
2022/04/27 10:10:45;;;;;;;6.20;2.20;;;10.70;99.90;;;;;;5132264;27;20061;-71
2022/04/27 10:13:13;;;;;;;6.82;2.22;;;10.70;99.90;;;;;;5142752;27;20112;-70
2022/04/27 10:15:43;;;;;;;6.03;2.13;;;10.70;99.90;;;;;;5120154;27;20085;-71
2022/04/27 10:18:15;;;;;;;6.45;2.15;;;10.80;99.90;;;;;;5119124;27;20228;-70
2022/04/27 10:20:41;;;;;;;8.65;2.50;;;10.70;99.90;;;;;;5125105;27;21052;-71
2022/04/27 10:23:21;;;;;;;7.72;2.47;;;10.60;99.90;;;;;;5134833;27;20026;-70
2022/04/27 10:26:05;;;;;;;7.45;2.38;;;10.50;99.90;;;;;;5138582;27;20031;-71
2022/04/27 10:28:34;;;;;;;6.33;2.37;;;10.60;99.90;;;;;;5135236;27;20075;-71
2022/04/27 10:31:03;;;;;;;8.27;2.33;;;10.70;99.90;;;;;;5089324;27;20333;-71
2022/04/27 10:33:42;;;;;;;5.75;2.70;;;10.60;99.90;;;;;;5115318;27;20058;-71
2022/04/27 10:36:38;;;;;;;9.57;2.45;;;10.50;99.90;;;;;;5130619;27;20073;-70
2022/04/27 10:39:12;;;;;;;9.85;2.70;;;10.50;99.90;;;;;;5104859;27;20064;-71
2022/04/27 10:41:47;;;;;;;9.63;2.33;;;10.50;99.90;;;;;;5123642;27;20045;-71
2022/04/27 10:44:13;;;;;;;7.20;2.70;;;10.50;99.90;;;;;;5124217;27;20042;-70
2022/04/27 10:46:43;;;;;;;7.75;2.40;;;10.40;99.90;;;;;;5125158;27;20034;-70
2022/04/27 10:49:29;;;;;;;8.02;2.35;;;10.40;99.90;;;;;;5135993;27;20099;-68
2022/04/27 10:52:06;;;;;;;5.47;2.03;;;10.50;99.90;;;;;;5103502;27;20047;-70
2022/04/27 10:54:38;;;;;;;12.38;3.28;;;10.40;99.90;;;;;;5096230;27;20229;-70
2022/04/27 10:57:19;;;;;;;5.60;2.38;;;10.40;99.90;;;;;;5115177;27;20027;-71
2022/04/27 10:59:44;;;;;;;8.70;2.25;;;10.40;99.90;;;;;;5127784;27;20038;-70
2022/04/27 11:02:35;;;;;;;7.32;2.10;;;10.40;99.90;;;;;;5104391;27;20259;-70
2022/04/27 11:05:01;;;;;;;6.07;2.42;;;10.40;99.90;;;;;;5126874;27;20140;-70
2022/04/27 11:07:36;;;;;;;9.18;2.53;;;10.50;99.90;;;;;;5122723;27;20050;-70
2022/04/27 11:10:10;;;;;;;8.50;2.78;;;10.40;99.90;;;;;;5111292;27;20304;-70
2022/04/27 11:12:37;;;;;;;7.00;2.00;;;10.50;99.90;;;;;;5152807;27;20055;-71
2022/04/27 11:15:05;;;;;;;7.55;2.25;;;10.50;99.90;;;;;;5114874;28;20092;-73
2022/04/27 11:17:34;;;;;;;8.55;2.92;;;10.50;99.90;;;;;;5118771;27;20039;-69
2022/04/27 11:20:03;;;;;;;9.07;2.50;;;10.50;99.90;;;;;;5128283;27;20050;-71
2022/04/27 11:22:38;;;;;;;8.85;2.08;;;10.50;99.90;;;;;;5117668;28;20203;-69
2022/04/27 11:25:07;;;;;;;6.97;2.35;;;10.50;99.90;;;;;;5116890;27;20052;-70
2022/04/27 11:27:34;;;;;;;9.57;2.45;;;10.50;99.90;;;;;;5118528;27;20092;-69
2022/04/27 11:30:03;;;;;;;7.53;2.40;;;10.60;99.90;;;;;;5131967;27;20394;-70
2022/04/27 11:32:29;;;;;;;4.65;2.25;;;10.60;99.90;;;;;;5117413;28;20042;-69
2022/04/27 11:34:55;;;;;;;7.93;2.45;;;10.60;99.90;;;;;;5105902;28;20107;-69
2022/04/27 11:37:21;;;;;;;7.03;2.25;;;10.70;99.90;;;;;;5100761;28;20039;-70
2022/04/27 11:39:48;;;;;;;7.35;2.33;;;10.50;99.90;;;;;;5123695;27;20073;-70
2022/04/27 11:42:16;;;;;;;11.93;3.00;;;10.50;99.90;;;;;;5105744;28;20298;-70
2022/04/27 11:44:43;;;;;;;8.43;2.42;;;10.50;99.90;;;;;;5099858;28;20038;-69
2022/04/27 11:47:28;;;;;;;9.55;2.47;;;10.50;99.90;;;;;;5102385;27;20220;-70
2022/04/27 11:49:59;;;;;;;6.13;2.58;;;10.60;99.90;;;;;;5119114;27;20043;-70
2022/04/27 11:52:26;;;;;;;7.63;2.72;;;10.50;99.90;;;;;;5118909;27;20039;-70
2022/04/27 11:54:52;;;;;;;5.05;2.28;;;10.70;99.90;;;;;;5111516;27;20076;-70
2022/04/27 11:57:22;;;;;;;6.95;2.28;;;10.70;99.90;;;;;;5101468;27;20066;-71
2022/04/27 11:59:51;;;;;;;7.40;2.70;;;10.70;99.90;;;;;;5102753;27;20050;-70
2022/04/27 12:02:25;;;;;;;9.00;3.03;;;10.80;99.90;;;;;;5117892;27;20099;-70
2022/04/27 12:04:55;;;;;;;11.18;2.70;;;10.80;99.90;;;;;;5105014;28;20035;-70
2022/04/27 12:07:24;;;;;;;8.10;3.30;;;10.80;99.90;;;;;;5102364;28;20040;-69
2022/04/27 12:10:01;;;;;;;11.15;2.78;;;10.80;99.90;;;;;;5098068;28;20097;-70
2022/04/27 12:12:28;;;;;;;7.55;2.85;;;10.90;99.90;;;;;;5096814;28;20357;-69
2022/04/27 12:14:55;;;;;;;9.52;2.75;;;11.00;99.90;;;;;;5131717;27;20147;-71
2022/04/27 12:17:40;;;;;;;7.55;2.17;;;11.20;99.90;;;;;;5115709;27;20105;-71
2022/04/27 12:20:07;;;;;;;7.38;2.75;;;11.10;99.90;;;;;;5124450;27;20039;-71
2022/04/27 12:22:37;;;;;;;9.00;2.45;;;11.20;99.90;;;;;;5117902;27;20066;-70
2022/04/27 12:25:05;;;;;;;9.73;2.53;;;11.20;99.90;;;;;;5098012;28;20039;-71
2022/04/27 12:27:31;;;;;;;21.13;3.00;;;11.00;99.90;;;;;;5100156;28;20354;-71
2022/04/27 12:30:07;;;;;;;5.75;2.38;;;11.10;99.90;;;;;;5114777;28;20039;-71
2022/04/27 12:32:33;;;;;;;7.05;2.58;;;11.10;99.90;;;;;;5129734;27;20062;-70
2022/04/27 12:37:54;;;;;;;4.97;2.00;;;11.30;99.90;;;;;;5125048;27;20168;-71
2022/04/27 12:40:20;;;;;;;10.15;2.53;;;11.30;99.90;;;;;;5101205;28;20040;-70
2022/04/27 12:43:00;;;;;;;9.25;2.53;;;11.30;99.90;;;;;;5102417;27;20058;-71
2022/04/27 12:45:26;;;;;;;9.82;2.60;;;11.30;99.90;;;;;;5106835;28;20039;-71
2022/04/27 12:47:52;;;;;;;6.00;2.17;;;11.50;99.90;;;;;;5114395;27;20035;-71
2022/04/27 12:50:20;;;;;;;7.13;2.40;;;11.60;99.90;;;;;;5125238;27;20058;-71
2022/04/27 12:52:47;;;;;;;7.88;2.60;;;11.70;99.90;;;;;;5117563;27;20266;-72
2022/04/27 12:55:14;;;;;;;9.65;2.80;;;11.70;99.90;;;;;;5119936;27;20040;-71
2022/04/27 12:57:47;;;;;;;6.85;2.40;;;11.70;99.90;;;;;;5110948;28;20043;-70
2022/04/27 13:00:15;;;;;;;4.50;2.42;;;11.90;99.90;;;;;;5128278;27;20043;-70
2022/04/27 13:02:40;;;;;;;7.78;2.42;;;12.30;99.90;;;;;;5146104;27;20035;-71
2022/04/27 13:05:08;;;;;;;6.82;2.45;;;12.30;99.90;;;;;;5130693;27;20043;-72
2022/04/27 13:07:34;;;;;;;5.15;2.05;;;12.40;99.90;;;;;;5135044;27;20046;-71
2022/04/27 13:12:44;;;;;;;8.13;2.90;;;12.30;99.90;;;;;;5134114;27;20051;-71
2022/04/27 13:15:11;;;;;;;7.82;2.45;;;12.60;99.90;;;;;;5133280;27;20032;-71
2022/04/27 13:17:50;;;;;;;6.53;2.10;;;12.50;99.90;;;;;;5134115;28;20116;-71
2022/04/27 13:20:19;;;;;;;6.18;2.25;;;12.70;99.90;;;;;;5110965;27;20039;-71